Time;durP1;ratioP1;P1;durP2;ratioP2;P2;SDS_P1;SDS_P2;PMS_P1;PMS_P2;Temp;Humidity;BMP_temperature;BMP_pressure;BME280_temperature;BME280_humidity;BME280_pressure;Samples;Min_cycle;Max_cycle;Signal;HPM_P1;HPM_P2
2021/12/10 00:01:19;;;;;;;11.10;6.57;;;;;;;1.94;85.30;98150.25;5295183;27;34499;-96
2021/12/10 00:04:13;;;;;;;15.30;5.20;;;;;;;2.02;85.13;98148.56;5273866;27;34099;-96
2021/12/10 00:07:14;;;;;;;8.48;5.07;;;;;;;1.70;86.56;98151.81;5293953;27;35146;-96
2021/12/10 00:10:14;;;;;;;11.88;4.95;;;;;;;2.07;84.98;98152.00;5264821;27;32263;-96
2021/12/10 00:12:56;;;;;;;10.18;5.62;;;;;;;2.33;83.84;98152.94;5249374;27;33649;-96
2021/12/10 00:15:56;;;;;;;9.32;5.18;;;;;;;1.98;85.32;98143.41;5274148;27;36083;-96
2021/12/10 00:19:05;;;;;;;15.45;6.53;;;;;;;1.65;85.75;98147.53;5291691;27;33282;-96
2021/12/10 00:22:01;;;;;;;13.32;6.15;;;;;;;2.22;84.79;98158.03;5264916;27;32319;-96
2021/12/10 00:24:58;;;;;;;15.50;6.80;;;;;;;1.67;86.91;98169.75;5316557;27;34011;-96
2021/12/10 00:27:54;;;;;;;14.57;5.95;;;;;;;2.25;84.07;98176.91;5288675;27;33898;-96
2021/12/10 00:30:54;;;;;;;10.60;4.90;;;;;;;2.34;83.53;98185.50;5257996;27;32886;-96
2021/12/10 00:33:58;;;;;;;10.52;5.32;;;;;;;1.57;87.10;98191.12;5282656;27;33288;-96
2021/12/10 00:36:45;;;;;;;14.63;6.45;;;;;;;1.59;87.73;98189.41;5310482;27;32655;-96
2021/12/10 00:39:54;;;;;;;12.65;6.70;;;;;;;1.54;87.89;98188.50;5248851;27;35368;-96
2021/12/10 00:42:38;;;;;;;11.25;5.87;;;;;;;1.83;85.68;98175.84;5285536;27;34659;-96
2021/12/10 00:45:36;;;;;;;16.20;6.87;;;;;;;1.89;86.17;98193.00;5232429;27;33307;-96
2021/12/10 00:48:19;;;;;;;12.57;6.50;;;;;;;1.79;86.42;98191.25;5270123;27;33939;-95
2021/12/10 00:51:18;;;;;;;19.60;6.03;;;;;;;2.12;85.38;98184.53;5276560;27;34613;-96
2021/12/10 00:54:16;;;;;;;11.60;6.15;;;;;;;2.04;84.11;98187.94;5213679;27;34931;-96
2021/12/10 00:57:14;;;;;;;10.93;5.60;;;;;;;2.52;82.52;98170.13;5262315;27;32793;-96
2021/12/10 01:00:11;;;;;;;11.27;5.18;;;;;;;1.90;85.02;98179.31;5266664;27;32899;-96
2021/12/10 01:03:14;;;;;;;10.18;3.87;;;;;;;2.17;83.99;98177.72;5242511;27;33677;-96
2021/12/10 01:06:01;;;;;;;13.10;5.68;;;;;;;2.16;83.36;98182.00;5231595;27;33377;-96
2021/12/10 01:09:04;;;;;;;13.15;4.82;;;;;;;1.60;86.50;98172.28;5283216;27;32765;-96
2021/12/10 01:12:08;;;;;;;10.85;5.28;;;;;;;2.13;84.04;98176.00;5291181;27;34247;-96
2021/12/10 01:27:48;;;;;;;13.52;4.82;;;;;;;2.28;83.49;98166.63;5237065;27;33981;-96
2021/12/10 01:30:32;;;;;;;11.75;4.85;;;;;;;2.27;82.40;98174.34;5268942;27;33406;-96
2021/12/10 01:33:18;;;;;;;11.82;5.53;;;;;;;1.92;83.81;98181.88;5227570;27;32241;-96
2021/12/10 01:36:01;;;;;;;7.47;4.07;;;;;;;1.66;85.44;98183.47;5249128;27;33222;-96
2021/12/10 01:38:55;;;;;;;7.07;4.20;;;;;;;1.79;85.89;98201.50;5303151;27;34277;-96
2021/12/10 01:41:43;;;;;;;;;;;;;;;2.02;84.64;98197.34;5272571;27;33345;-96
2021/12/10 01:44:50;;;;;;;8.07;4.25;;;;;;;2.21;82.98;98198.28;5298525;27;31660;-96
2021/12/10 01:47:39;;;;;;;10.43;5.10;;;;;;;2.00;84.55;98191.34;5307065;27;32551;-96
2021/12/10 01:50:45;;;;;;;9.50;4.40;;;;;;;2.12;83.78;98176.84;5281225;27;34079;-96
2021/12/10 01:53:33;;;;;;;9.38;4.82;;;;;;;1.57;85.43;98185.97;5314469;27;34764;-96
2021/12/10 01:56:36;;;;;;;9.45;4.50;;;;;;;1.86;84.85;98181.00;5225213;27;20053;-96
2021/12/10 01:59:25;;;;;;;9.73;4.72;;;;;;;1.60;85.56;98196.25;5297176;27;32122;-96
2021/12/10 02:02:29;;;;;;;6.53;3.80;;;;;;;1.88;84.16;98181.00;5320522;26;34254;-96
2021/12/10 02:05:34;;;;;;;9.02;4.50;;;;;;;2.15;82.53;98179.41;5308869;27;34976;-96
2021/12/10 02:08:31;;;;;;;7.85;4.80;;;;;;;1.40;85.78;98177.31;5256160;27;33392;-96
2021/12/10 02:11:28;;;;;;;9.07;3.83;;;;;;;2.21;83.58;98184.59;5281600;27;33601;-96
2021/12/10 02:14:12;;;;;;;8.32;5.40;;;;;;;2.20;82.63;98186.28;5323743;26;34019;-96
2021/12/10 02:17:45;;;;;;;9.65;5.00;;;;;;;1.89;83.41;98191.28;5364340;26;20119;-96
2021/12/10 02:20:21;;;;;;;10.23;4.87;;;;;;;1.87;82.22;98184.41;5338340;26;34779;-96
2021/12/10 02:23:22;;;;;;;7.87;4.70;;;;;;;2.02;82.73;98184.50;5247979;27;32763;-96
2021/12/10 02:26:07;;;;;;;8.25;4.05;;;;;;;2.17;81.98;98187.97;5276976;27;34649;-96
2021/12/10 02:29:01;;;;;;;8.18;4.68;;;;;;;1.80;84.24;98192.94;5250644;27;33411;-96
2021/12/10 02:31:54;;;;;;;10.18;5.00;;;;;;;1.78;83.03;98190.34;5228230;27;32668;-96
2021/12/10 02:34:49;;;;;;;10.30;4.85;;;;;;;2.31;80.88;98188.88;5256631;27;33687;-96
2021/12/10 02:37:35;;;;;;;12.75;6.22;;;;;;;2.30;80.74;98192.34;5318088;27;35609;-96
2021/12/10 02:40:39;;;;;;;10.15;5.28;;;;;;;1.92;82.32;98203.28;5274786;27;33914;-96
2021/12/10 02:43:49;;;;;;;16.55;6.62;;;;;;;1.88;83.05;98201.53;5277858;27;34349;-96
2021/12/10 02:46:50;;;;;;;13.65;6.57;;;;;;;2.19;81.64;98197.44;5290337;27;33913;-96
2021/12/10 02:49:57;;;;;;;11.90;7.00;;;;;;;2.28;81.18;98196.63;5342450;26;20072;-96
2021/12/10 02:53:09;;;;;;;16.33;7.62;;;;;;;2.41;80.17;98192.38;5298503;27;34738;-96
2021/12/10 02:55:58;;;;;;;12.82;6.68;;;;;;;2.67;78.05;98184.72;5253932;27;32270;-96
2021/12/10 02:58:32;;;;;;;9.93;5.55;;;;;;;2.32;78.29;98185.47;5268035;27;32485;-96
2021/12/10 03:01:38;;;;;;;11.93;6.87;;;;;;;2.14;80.04;98185.44;5303016;27;33725;-96
2021/12/10 03:04:36;;;;;;;15.10;7.00;;;;;;;2.45;78.33;98178.66;5305622;27;33437;-96
2021/12/10 03:07:22;;;;;;;13.32;6.53;;;;;;;2.13;79.76;98184.53;5317147;26;33351;-96
2021/12/10 03:10:18;;;;;;;13.20;7.15;;;;;;;2.26;78.64;98185.47;5275393;27;33977;-96
2021/12/10 03:12:59;;;;;;;10.88;5.82;;;;;;;2.54;77.77;98178.72;5244447;27;33663;-96
2021/12/10 03:15:53;;;;;;;15.15;7.30;;;;;;;2.71;76.59;98186.44;5301700;27;33758;-95
2021/12/10 03:18:35;;;;;;;11.05;5.57;;;;;;;1.75;80.57;98184.34;5290211;27;32988;-96
2021/12/10 03:21:33;;;;;;;12.93;7.72;;;;;;;1.81;79.76;98180.13;5281129;27;33968;-96
2021/12/10 03:24:28;;;;;;;13.15;6.35;;;;;;;1.78;79.50;98184.38;5268694;27;34223;-96
2021/12/10 03:27:26;;;;;;;13.95;7.68;;;;;;;1.68;80.18;98189.47;5282054;27;34821;-96
2021/12/10 03:30:26;;;;;;;12.85;7.55;;;;;;;1.90;79.32;98192.13;5304420;27;34532;-96
2021/12/10 03:33:21;;;;;;;15.00;7.35;;;;;;;2.32;78.21;98187.22;5281888;27;32790;-96
2021/12/10 03:36:03;;;;;;;13.82;7.28;;;;;;;2.24;78.23;98194.84;5270410;27;33388;-96
2021/12/10 03:38:58;;;;;;;14.18;8.50;;;;;;;2.00;78.89;98193.91;5241883;27;33977;-96
2021/12/10 03:41:38;;;;;;;15.40;8.32;;;;;;;2.16;78.47;98197.41;5313020;26;32789;-96
2021/12/10 03:44:35;;;;;;;17.42;9.07;;;;;;;2.04;78.64;98198.19;5277931;27;33115;-96
2021/12/10 03:47:16;;;;;;;16.40;8.10;;;;;;;2.36;77.98;98199.19;5301265;27;34602;-96
2021/12/10 03:50:11;;;;;;;15.00;8.25;;;;;;;2.49;77.52;98195.84;5260925;27;33570;-96
2021/12/10 03:52:53;;;;;;;13.45;7.68;;;;;;;2.24;78.72;98197.44;5335124;26;32209;-96
2021/12/10 03:55:48;;;;;;;16.85;8.98;;;;;;;1.82;79.63;98196.41;5275904;27;33261;-96
2021/12/10 03:58:35;;;;;;;15.63;7.65;;;;;;;2.50;77.09;98202.66;5300987;27;34928;-96
2021/12/10 04:01:18;;;;;;;14.93;7.80;;;;;;;1.99;78.54;98205.03;5297594;27;33242;-96
2021/12/10 04:04:33;;;;;;;18.00;10.02;;;;;;;1.89;79.18;98208.41;5287431;27;33381;-96
2021/12/10 04:07:26;;;;;;;21.12;10.38;;;;;;;2.12;78.46;98205.06;5267478;27;32823;-96
2021/12/10 04:10:19;;;;;;;22.02;10.35;;;;;;;2.32;78.30;98200.91;5252841;27;33690;-96
2021/12/10 04:12:48;;;;;;;27.37;11.30;;;;;;;2.28;78.32;98196.63;5263559;27;33378;-96
2021/12/10 04:19:10;;;;;;;28.40;11.45;;;;;;;1.83;80.37;98209.22;5375466;26;20102;-74
2021/12/10 04:21:41;;;;;;;22.90;9.65;;;;;;;2.16;78.69;98212.81;5387936;26;35820;-74
2021/12/10 04:24:18;;;;;;;22.35;10.40;;;;;;;1.78;80.54;98223.72;5369991;26;33695;-75
2021/12/10 04:26:47;;;;;;;21.95;9.88;;;;;;;1.89;79.42;98228.94;5369958;26;33873;-74
2021/12/10 04:29:15;;;;;;;19.52;9.80;;;;;;;1.66;80.83;98234.78;5369746;26;34658;-74
2021/12/10 04:31:43;;;;;;;22.50;11.38;;;;;;;1.81;80.28;98235.72;5388350;26;35924;-74
2021/12/10 04:34:12;;;;;;;23.87;10.00;;;;;;;1.41;81.30;98225.19;5389676;26;35115;-74
2021/12/10 04:36:40;;;;;;;18.48;9.43;;;;;;;1.84;79.97;98230.63;5388344;26;33575;-74
2021/12/10 04:39:10;;;;;;;22.92;11.27;;;;;;;2.28;78.71;98235.13;5388563;26;34663;-74
2021/12/10 04:41:39;;;;;;;24.80;12.18;;;;;;;2.27;77.87;98243.69;5389793;26;35056;-75
2021/12/10 04:44:07;;;;;;;22.58;9.40;;;;;;;2.39;77.15;98241.16;5389179;26;34401;-74
2021/12/10 04:46:35;;;;;;;20.75;10.82;;;;;;;2.08;77.87;98237.59;5388306;26;33450;-74
2021/12/10 04:49:10;;;;;;;25.62;10.75;;;;;;;1.87;79.57;98246.03;5388075;26;34046;-75
2021/12/10 04:51:47;;;;;;;22.98;12.40;;;;;;;2.26;77.78;98240.25;5388315;26;34974;-74
2021/12/10 04:54:17;;;;;;;22.50;10.77;;;;;;;2.59;76.50;98238.66;5388174;26;34502;-75
2021/12/10 04:56:46;;;;;;;26.75;11.38;;;;;;;2.15;78.48;98246.19;5387904;26;33540;-74
2021/12/10 04:59:19;;;;;;;27.42;12.20;;;;;;;2.36;77.37;98256.56;5351309;26;34348;-74
2021/12/10 05:01:48;;;;;;;22.85;11.02;;;;;;;2.25;78.60;98268.50;5389434;26;35880;-74
2021/12/10 05:04:16;;;;;;;26.90;12.48;;;;;;;1.83;79.56;98278.50;5389470;26;35365;-74
2021/12/10 05:06:44;;;;;;;24.30;11.95;;;;;;;2.26;78.10;98281.34;5388150;26;33668;-74
2021/12/10 05:09:13;;;;;;;27.27;12.05;;;;;;;2.63;76.65;98285.81;5389649;26;34083;-74
2021/12/10 05:11:42;;;;;;;31.58;13.65;;;;;;;2.26;77.75;98285.66;5369523;26;35917;-74
2021/12/10 05:14:10;;;;;;;25.08;12.23;;;;;;;2.25;78.69;98277.06;5387628;26;34249;-73
2021/12/10 05:16:42;;;;;;;26.42;12.13;;;;;;;1.88;80.04;98268.28;5387801;26;33675;-74
2021/12/10 05:19:12;;;;;;;22.92;10.90;;;;;;;2.27;79.66;98264.22;5389448;26;33075;-75
2021/12/10 05:21:43;;;;;;;29.92;11.48;;;;;;;2.58;77.62;98262.66;5388268;26;35675;-74
2021/12/10 05:24:11;;;;;;;28.05;12.20;;;;;;;2.33;77.59;98268.53;5388320;26;33752;-76
2021/12/10 05:26:39;;;;;;;26.02;11.40;;;;;;;2.20;78.93;98271.03;5389570;26;34459;-75
2021/12/10 05:29:09;;;;;;;28.12;12.20;;;;;;;2.20;78.73;98262.47;5369621;26;34764;-74
2021/12/10 05:31:39;;;;;;;30.00;12.00;;;;;;;2.77;77.36;98262.72;5369175;26;35741;-74
2021/12/10 05:34:08;;;;;;;30.73;12.60;;;;;;;2.52;77.82;98265.19;5387921;26;35243;-75
2021/12/10 05:36:35;;;;;;;26.08;13.35;;;;;;;2.21;78.74;98256.50;5389762;26;34095;-75
2021/12/10 05:39:06;;;;;;;31.33;13.80;;;;;;;2.41;78.78;98280.56;5389500;26;34754;-75
2021/12/10 05:41:35;;;;;;;28.62;12.27;;;;;;;2.62;77.55;98268.66;5369969;26;35090;-76
2021/12/10 05:44:04;;;;;;;36.35;14.20;;;;;;;2.71;77.21;98278.97;5388414;26;35257;-75
2021/12/10 05:46:33;;;;;;;33.78;14.98;;;;;;;2.33;78.80;98263.41;5369817;26;33665;-76
2021/12/10 05:49:01;;;;;;;31.60;13.32;;;;;;;2.11;79.48;98265.00;5369546;26;33972;-75
2021/12/10 05:51:30;;;;;;;26.58;13.15;;;;;;;1.99;79.86;98261.50;5389639;26;35199;-76
2021/12/10 05:53:57;;;;;;;32.70;14.80;;;;;;;2.19;79.09;98263.31;5369820;26;34517;-76
2021/12/10 05:56:26;;;;;;;32.83;13.93;;;;;;;1.91;81.14;98265.75;5388573;26;33750;-76
2021/12/10 05:58:54;;;;;;;30.92;13.15;;;;;;;2.33;79.83;98264.28;5388401;26;34691;-76
2021/12/10 06:01:23;;;;;;;30.80;12.95;;;;;;;2.77;78.19;98258.44;5367861;26;35159;-75
2021/12/10 06:03:52;;;;;;;23.08;11.80;;;;;;;2.78;77.31;98259.31;5388831;26;35278;-75
2021/12/10 06:06:23;;;;;;;29.75;12.30;;;;;;;3.19;75.68;98261.97;5388174;26;34502;-75
2021/12/10 06:08:51;;;;;;;41.67;17.17;;;;;;;2.59;77.50;98253.22;5387253;26;33936;-75
2021/12/10 06:11:21;;;;;;;50.17;20.73;;;;;;;2.36;78.41;98246.28;5387655;26;36011;-75
2021/12/10 06:13:49;;;;;;;71.07;30.37;;;;;;;2.49;78.56;98249.78;5369633;26;34605;-75
2021/12/10 06:16:17;;;;;;;39.75;19.02;;;;;;;2.42;79.20;98251.47;5389357;26;33691;-76
2021/12/10 06:18:46;;;;;;;32.47;15.40;;;;;;;2.12;80.28;98243.59;5388904;26;33935;-76
2021/12/10 06:21:15;;;;;;;44.63;19.50;;;;;;;2.37;79.37;98247.16;5369323;26;35852;-75
2021/12/10 06:23:44;;;;;;;50.12;20.15;;;;;;;2.52;79.09;98236.06;5388368;26;34515;-75
2021/12/10 06:26:12;;;;;;;32.80;15.85;;;;;;;2.73;77.42;98235.28;5368906;26;32811;-76
2021/12/10 06:28:44;;;;;;;31.20;13.27;;;;;;;2.19;80.44;98232.50;5369553;26;33903;-75
2021/12/10 06:31:15;;;;;;;26.55;12.55;;;;;;;2.09;80.24;98234.19;5368994;26;34518;-76
2021/12/10 06:33:44;;;;;;;20.75;12.18;;;;;;;2.09;80.76;98229.91;5389304;26;34465;-76
2021/12/10 06:36:14;;;;;;;31.98;14.38;;;;;;;1.68;81.44;98227.09;5369359;26;33573;-76
2021/12/10 06:38:42;;;;;;;27.17;11.82;;;;;;;2.38;79.84;98224.06;5389917;26;34186;-76
2021/12/10 06:41:11;;;;;;;28.52;13.13;;;;;;;1.99;80.11;98225.56;5389088;26;35056;-75
2021/12/10 06:43:39;;;;;;;30.30;11.95;;;;;;;1.80;80.22;98234.88;5389671;26;34585;-75
2021/12/10 06:46:07;;;;;;;23.40;9.68;;;;;;;2.15;79.43;98233.34;5388275;26;33509;-76
2021/12/10 06:48:35;;;;;;;30.23;14.05;;;;;;;2.05;80.17;98240.16;5388768;26;34737;-76
2021/12/10 06:51:09;;;;;;;24.63;12.65;;;;;;;1.59;82.12;98240.72;5386739;26;34919;-76
2021/12/10 06:53:39;;;;;;;22.27;11.75;;;;;;;2.33;78.23;98235.13;5387686;26;34469;-75
2021/12/10 06:56:08;;;;;;;21.77;11.40;;;;;;;2.24;78.99;98238.53;5369351;26;32970;-75
2021/12/10 06:58:36;;;;;;;26.77;10.90;;;;;;;2.79;77.00;98241.31;5389596;26;34016;-75
2021/12/10 07:01:17;;;;;;;26.58;12.23;;;;;;;3.41;73.29;98241.41;5369214;26;34726;-79
2021/12/10 07:03:46;;;;;;;28.15;11.63;;;;;;;2.58;76.52;98251.53;5389592;26;34613;-75
2021/12/10 07:06:14;;;;;;;30.80;12.73;;;;;;;3.09;74.91;98260.25;5387960;26;34235;-75
2021/12/10 07:08:43;;;;;;;22.33;10.70;;;;;;;3.53;72.75;98251.69;5388666;26;34000;-74
2021/12/10 07:11:14;;;;;;;22.35;10.73;;;;;;;2.20;77.34;98244.50;5388333;26;35764;-75
2021/12/10 07:13:45;;;;;;;24.52;11.02;;;;;;;2.72;75.70;98239.59;5388239;26;33607;-75
2021/12/10 07:16:14;;;;;;;23.98;10.73;;;;;;;3.13;75.15;98246.50;5389058;26;33895;-74
2021/12/10 07:18:42;;;;;;;25.30;11.12;;;;;;;2.80;75.58;98243.00;5389077;26;33934;-76
2021/12/10 07:21:10;;;;;;;29.63;13.68;;;;;;;2.89;75.37;98251.62;5388476;26;35857;-75
2021/12/10 07:23:40;;;;;;;61.17;23.02;;;;;;;2.07;78.75;98247.00;5387305;26;34598;-75
2021/12/10 07:26:10;;;;;;;40.22;18.75;;;;;;;2.13;79.40;98237.62;5388020;26;33622;-74
2021/12/10 07:28:39;;;;;;;32.83;17.37;;;;;;;2.19;79.39;98237.62;5389312;26;33293;-74
2021/12/10 07:31:08;;;;;;;24.83;12.13;;;;;;;3.15;75.85;98229.38;5368202;26;34504;-75
2021/12/10 07:33:37;;;;;;;41.40;21.40;;;;;;;3.53;74.36;98236.25;5388998;26;35362;-76
2021/12/10 07:36:06;;;;;;;28.67;15.45;;;;;;;3.23;74.75;98232.81;5388859;26;34362;-75
2021/12/10 07:38:35;;;;;;;32.00;14.25;;;;;;;2.53;77.80;98220.66;5387830;26;33904;-75
2021/12/10 07:41:06;;;;;;;38.10;15.50;;;;;;;3.54;74.63;98217.34;5388761;26;34935;-75
2021/12/10 07:43:36;;;;;;;32.70;13.27;;;;;;;3.38;74.18;98215.66;5389172;26;35568;-75
2021/12/10 07:46:05;;;;;;;30.83;13.62;;;;;;;3.54;73.67;98217.34;5386984;26;33723;-75
2021/12/10 07:48:35;;;;;;;35.65;13.57;;;;;;;4.13;71.96;98222.41;5369252;26;33930;-76
2021/12/10 07:51:09;;;;;;;33.95;13.43;;;;;;;3.90;72.03;98213.03;5350520;26;34309;-75
2021/12/10 07:53:38;;;;;;;29.50;13.50;;;;;;;3.68;72.37;98204.47;5389065;26;34909;-75
2021/12/10 07:56:08;;;;;;;40.45;15.07;;;;;;;3.50;74.67;98199.38;5368824;26;34449;-75
2021/12/10 07:58:37;;;;;;;27.20;13.40;;;;;;;4.43;71.58;98184.50;5387852;26;34377;-74
2021/12/10 08:01:09;;;;;;;36.63;17.60;;;;;;;4.84;69.20;98175.69;5388917;26;35235;-73
2021/12/10 08:03:37;;;;;;;32.90;16.90;;;;;;;4.28;70.33;98175.12;5386904;26;34570;-76
2021/12/10 08:06:06;;;;;;;27.73;15.40;;;;;;;3.93;72.09;98173.53;5386465;26;34474;-74
2021/12/10 08:08:34;;;;;;;37.08;16.35;;;;;;;4.35;71.29;98174.22;5368986;26;34584;-72
2021/12/10 08:11:04;;;;;;;32.60;12.88;;;;;;;4.23;71.56;98176.88;5388354;26;35167;-76
2021/12/10 08:13:32;;;;;;;32.15;13.57;;;;;;;4.02;72.17;98172.66;5388979;26;34383;-74
2021/12/10 08:16:00;;;;;;;28.08;12.95;;;;;;;3.72;73.29;98177.84;5388406;26;33487;-76
2021/12/10 08:18:28;;;;;;;32.13;13.73;;;;;;;3.87;71.87;98178.72;5388689;26;34777;-75
2021/12/10 08:20:58;;;;;;;31.60;13.07;;;;;;;3.72;73.42;98169.28;5389392;26;35217;-74
2021/12/10 08:23:26;;;;;;;26.30;12.80;;;;;;;5.04;67.47;98173.81;5388247;26;34505;-74
2021/12/10 08:25:54;;;;;;;28.62;13.13;;;;;;;4.73;69.42;98186.94;5389827;26;34274;-75
2021/12/10 08:28:25;;;;;;;28.48;12.65;;;;;;;5.15;67.68;98193.53;5389936;26;34021;-74
2021/12/10 08:30:55;;;;;;;29.17;12.65;;;;;;;5.27;67.10;98191.69;5389983;26;35267;-75
2021/12/10 08:33:23;;;;;;;28.85;12.82;;;;;;;5.06;67.71;98204.75;5370012;26;33809;-77
2021/12/10 08:35:54;;;;;;;26.00;12.40;;;;;;;5.08;66.74;98203.91;5369818;26;33272;-75
2021/12/10 08:38:22;;;;;;;38.65;14.25;;;;;;;5.43;66.03;98202.75;5388199;26;33950;-77
2021/12/10 08:40:57;;;;;;;26.80;11.90;;;;;;;4.65;67.76;98196.41;5389584;26;34819;-74
2021/12/10 08:43:26;;;;;;;23.70;12.85;;;;;;;4.74;67.76;98198.09;5388723;26;35257;-75
2021/12/10 08:45:54;;;;;;;29.50;13.57;;;;;;;4.95;67.57;98204.84;5369880;26;33688;-75
2021/12/10 08:48:24;;;;;;;25.50;11.95;;;;;;;3.63;72.85;98205.34;5389411;26;35129;-76
2021/12/10 08:50:53;;;;;;;26.37;11.48;;;;;;;4.73;68.49;98197.25;5368433;26;33877;-76
2021/12/10 08:53:22;;;;;;;28.85;12.40;;;;;;;4.66;68.55;98197.25;5388532;26;34566;-75
2021/12/10 08:55:52;;;;;;;30.48;14.02;;;;;;;4.78;68.19;98197.19;5389677;26;33456;-74
2021/12/10 08:58:20;;;;;;;29.63;13.32;;;;;;;3.70;72.52;98196.75;5369526;26;32556;-75
2021/12/10 09:00:53;;;;;;;28.48;11.82;;;;;;;4.62;69.55;98191.25;5369856;26;35856;-76
2021/12/10 09:03:42;;;;;;;30.65;13.25;;;;;;;4.21;71.19;98194.06;5373003;26;34371;-75
2021/12/10 09:06:11;;;;;;;27.42;13.02;;;;;;;4.30;70.02;98194.84;5370074;26;34460;-74
2021/12/10 09:08:39;;;;;;;27.10;12.52;;;;;;;4.55;69.49;98194.75;5369973;26;33864;-73
2021/12/10 09:11:10;;;;;;;30.45;13.60;;;;;;;4.83;68.93;98197.19;5387818;26;35770;-73
2021/12/10 09:13:38;;;;;;;25.42;12.88;;;;;;;4.40;70.51;98200.84;5369720;26;33946;-73
2021/12/10 09:16:19;;;;;;;31.73;12.80;;;;;;;4.42;70.31;98206.00;5387573;26;33662;-72
2021/12/10 09:18:48;;;;;;;24.63;11.88;;;;;;;4.02;71.63;98199.25;5389793;26;33683;-74
2021/12/10 09:21:16;;;;;;;29.63;12.90;;;;;;;3.99;71.03;98204.44;5389571;26;35905;-73
2021/12/10 09:23:45;;;;;;;24.05;11.05;;;;;;;3.77;72.16;98211.34;5368990;26;33852;-74
2021/12/10 09:26:17;;;;;;;23.67;11.30;;;;;;;4.20;71.27;98213.81;5368968;26;33073;-73
2021/12/10 09:28:47;;;;;;;30.52;12.15;;;;;;;4.07;71.35;98219.84;5388450;26;33927;-74
2021/12/10 09:31:15;;;;;;;24.00;11.95;;;;;;;4.49;70.91;98216.25;5368796;26;35914;-73
2021/12/10 09:33:43;;;;;;;29.33;13.05;;;;;;;4.54;70.10;98213.66;5389217;26;35042;-73
2021/12/10 09:36:11;;;;;;;26.73;13.62;;;;;;;4.45;69.86;98211.13;5389427;26;33663;-74
2021/12/10 09:38:40;;;;;;;25.35;11.98;;;;;;;3.97;71.76;98201.84;5388322;26;34104;-74
2021/12/10 09:41:09;;;;;;;24.60;12.77;;;;;;;4.32;70.87;98208.63;5389870;26;34989;-73
2021/12/10 09:43:39;;;;;;;28.55;12.93;;;;;;;4.52;69.68;98211.09;5389416;26;34504;-74
2021/12/10 09:46:09;;;;;;;25.90;13.07;;;;;;;4.33;70.67;98209.47;5369689;26;32711;-74
2021/12/10 09:48:39;;;;;;;30.40;13.65;;;;;;;4.37;71.50;98216.31;5387896;26;33681;-75
2021/12/10 09:51:15;;;;;;;27.60;12.85;;;;;;;5.40;66.61;98207.97;5387091;26;34874;-75
2021/12/10 09:53:49;;;;;;;29.30;13.45;;;;;;;5.56;66.29;98207.81;5389425;26;35120;-73
2021/12/10 09:56:19;;;;;;;24.45;11.77;;;;;;;5.15;69.11;98196.94;5388970;26;34444;-75
2021/12/10 09:58:49;;;;;;;21.92;10.35;;;;;;;4.97;69.35;98213.41;5370098;26;34717;-75
2021/12/10 10:01:25;;;;;;;22.33;10.63;;;;;;;6.17;63.92;98207.22;5388113;26;35026;-74
2021/12/10 10:04:01;;;;;;;22.67;10.32;;;;;;;6.37;63.14;98208.72;5369322;26;34743;-74
2021/12/10 10:06:45;;;;;;;22.48;10.20;;;;;;;6.12;63.98;98206.41;5351756;26;34308;-74
2021/12/10 10:09:15;;;;;;;22.40;10.65;;;;;;;5.67;65.06;98217.19;5350711;26;34096;-75
2021/12/10 10:11:54;;;;;;;24.17;11.23;;;;;;;5.89;65.04;98212.69;5387969;26;34990;-75
2021/12/10 10:14:23;;;;;;;22.37;11.50;;;;;;;5.63;65.22;98214.62;5389333;26;35301;-76
2021/12/10 10:16:51;;;;;;;25.15;11.85;;;;;;;6.02;64.21;98213.44;5388913;26;34574;-75
2021/12/10 10:19:21;;;;;;;27.23;12.88;;;;;;;5.48;66.56;98211.31;5389040;26;34043;-75
2021/12/10 10:21:53;;;;;;;23.90;11.25;;;;;;;5.25;66.80;98205.50;5388896;26;35980;-76
2021/12/10 10:24:24;;;;;;;25.67;10.85;;;;;;;4.79;69.23;98208.38;5369988;26;34495;-76
2021/12/10 10:26:59;;;;;;;26.98;11.70;;;;;;;4.75;69.16;98203.25;5388971;26;34371;-74
2021/12/10 10:29:32;;;;;;;25.02;11.18;;;;;;;5.13;67.76;98204.72;5368773;26;33317;-75
2021/12/10 10:32:09;;;;;;;23.00;12.05;;;;;;;4.09;72.21;98194.94;5388805;26;35939;-78
2021/12/10 10:34:44;;;;;;;23.92;12.10;;;;;;;4.39;71.69;98185.38;5388117;26;34535;-76
2021/12/10 10:37:14;;;;;;;25.23;11.73;;;;;;;4.05;72.49;98175.22;5369176;26;34428;-74
2021/12/10 10:39:43;;;;;;;25.85;12.63;;;;;;;4.77;69.94;98171.44;5389540;26;34064;-77
2021/12/10 10:42:15;;;;;;;27.85;14.77;;;;;;;5.18;68.53;98165.13;5386575;26;34906;-77
2021/12/10 10:45:02;;;;;;;36.72;17.17;;;;;;;4.93;69.70;98161.00;5371841;26;34522;-79
2021/12/10 10:47:31;;;;;;;23.55;11.77;;;;;;;4.88;70.09;98161.91;5388300;26;34486;-77
2021/12/10 10:50:12;;;;;;;26.83;13.27;;;;;;;5.23;67.73;98153.88;5366196;26;33601;-76
2021/12/10 10:52:47;;;;;;;30.15;13.07;;;;;;;4.89;68.78;98148.16;5368583;26;35989;-76
2021/12/10 10:55:31;;;;;;;30.83;13.18;;;;;;;4.20;71.22;98149.41;5351202;26;34622;-76
2021/12/10 10:58:10;;;;;;;24.92;13.38;;;;;;;4.12;72.53;98138.25;5369222;26;33665;-76
2021/12/10 11:01:03;;;;;;;23.75;11.82;;;;;;;4.85;69.48;98141.28;5389648;26;34723;-76
2021/12/10 11:03:58;;;;;;;27.58;12.32;;;;;;;4.71;70.48;98143.94;5387861;26;34885;-76
2021/12/10 11:06:36;;;;;;;43.90;19.23;;;;;;;5.06;69.48;98141.09;5387729;26;34324;-75
2021/12/10 11:09:15;;;;;;;26.17;12.18;;;;;;;4.85;69.56;98130.97;5369741;26;33633;-75
2021/12/10 11:11:51;;;;;;;31.08;14.82;;;;;;;4.29;71.06;98136.47;5369519;26;33901;-76
2021/12/10 11:14:29;;;;;;;35.15;14.20;;;;;;;5.17;68.47;98127.25;5369652;26;34873;-76
2021/12/10 11:17:35;;;;;;;29.50;13.85;;;;;;;4.24;72.23;98134.78;5389068;26;34500;-76
2021/12/10 11:20:13;;;;;;;32.92;13.75;;;;;;;4.77;71.14;98123.28;5389665;26;34217;-75
2021/12/10 11:22:47;;;;;;;28.40;14.60;;;;;;;5.19;68.45;98120.38;5351180;26;33371;-75
2021/12/10 11:25:25;;;;;;;36.72;14.63;;;;;;;4.59;70.34;98113.09;5350618;26;34213;-75
2021/12/10 11:28:07;;;;;;;30.60;15.68;;;;;;;5.36;67.89;98123.66;5389016;26;34598;-76
2021/12/10 11:30:41;;;;;;;29.12;14.40;;;;;;;4.21;72.00;98122.75;5389341;26;34384;-76
2021/12/10 11:33:21;;;;;;;33.78;16.85;;;;;;;5.16;68.99;98121.25;5369421;26;34203;-76
2021/12/10 11:35:55;;;;;;;31.83;14.18;;;;;;;4.74;69.63;98118.16;5369181;26;35068;-76
2021/12/10 11:38:29;;;;;;;54.60;25.20;;;;;;;4.20;72.79;98122.75;5387440;26;35041;-76
2021/12/10 11:41:12;;;;;;;32.90;16.10;;;;;;;5.08;69.72;98112.72;5387570;26;34098;-76
2021/12/10 11:44:18;;;;;;;33.42;15.65;;;;;;;4.35;72.08;98109.81;5389018;26;34716;-75
2021/12/10 11:47:25;;;;;;;30.05;14.15;;;;;;;4.26;72.20;98115.88;5387733;26;35755;-75
2021/12/10 11:49:50;;;;;;;34.30;16.85;;;;;;;3.92;72.89;98116.03;5389215;26;34587;-75
2021/12/10 11:52:21;;;;;;;34.05;15.52;;;;;;;3.85;73.11;98119.47;5387496;26;33617;-75
2021/12/10 11:54:55;;;;;;;36.85;17.42;;;;;;;3.91;73.60;98113.44;5351671;26;34066;-75
2021/12/10 11:57:32;;;;;;;38.75;15.68;;;;;;;3.99;73.76;98125.44;5389768;26;35091;-75
2021/12/10 12:00:22;;;;;;;30.48;15.88;;;;;;;4.48;72.18;98120.88;5388935;26;34562;-76
2021/12/10 12:02:55;;;;;;;38.75;17.50;;;;;;;4.22;72.83;98109.03;5369478;26;33802;-76
2021/12/10 12:05:36;;;;;;;42.03;16.05;;;;;;;4.31;71.86;98098.66;5389126;26;33684;-76
2021/12/10 12:08:08;;;;;;;35.72;15.35;;;;;;;4.11;73.10;98105.63;5388286;26;34657;-75
2021/12/10 12:10:40;;;;;;;30.40;15.07;;;;;;;3.60;74.93;98108.41;5390292;26;34463;-76
2021/12/10 12:15:46;;;;;;;;;;;;;;;4.36;72.57;98109.81;5390232;26;34099;-76
2021/12/10 12:18:27;;;;;;;24.75;12.75;;;;;;;3.93;73.55;98106.56;5389476;26;35242;-76
2021/12/10 12:27:06;;;;;;;33.40;16.08;;;;;;;3.61;75.53;98110.09;5389886;26;33615;-76
2021/12/10 12:29:56;;;;;;;30.35;14.77;;;;;;;3.38;76.62;98102.44;5390094;26;35155;-76
2021/12/10 12:32:32;;;;;;;32.55;16.80;;;;;;;3.62;75.55;98096.41;5389628;26;34491;-76
2021/12/10 12:35:19;;;;;;;29.58;15.00;;;;;;;4.21;73.35;98097.00;5390136;26;34379;-76
2021/12/10 12:37:47;;;;;;;36.75;16.12;;;;;;;3.74;74.51;98096.34;5389632;26;33844;-74
2021/12/10 12:40:37;;;;;;;33.08;14.90;;;;;;;3.55;74.44;98095.53;5372986;26;35104;-74
2021/12/10 12:43:06;;;;;;;26.15;12.35;;;;;;;3.42;76.01;98084.44;5369757;26;34459;-75
2021/12/10 12:45:46;;;;;;;24.23;12.20;;;;;;;4.02;73.95;98085.06;5372414;26;34345;-74
2021/12/10 12:48:27;;;;;;;27.73;13.65;;;;;;;3.84;73.94;98086.84;5389544;26;34719;-76